Time;durP1;ratioP1;P1;durP2;ratioP2;P2;SDS_P1;SDS_P2;PMS_P1;PMS_P2;Temp;Humidity;BMP_temperature;BMP_pressure;BME280_temperature;BME280_humidity;BME280_pressure;Samples;Min_cycle;Max_cycle;Signal;HPM_P1;HPM_P2
2021/12/26 00:01:55;;;;;;;22.03;19.70;;;7.70;99.90;;;;;;10457060;28;20228;-79
2021/12/26 00:06:58;;;;;;;20.40;18.30;;;8.40;99.90;;;;;;10453237;28;20664;-79
2021/12/26 00:12:00;;;;;;;22.27;19.87;;;7.80;99.90;;;;;;10463902;28;20220;-78
2021/12/26 00:17:03;;;;;;;20.70;18.50;;;7.70;99.90;;;;;;10491398;28;20204;-78
2021/12/26 00:22:07;;;;;;;26.53;20.03;;;7.70;99.90;;;;;;10498992;28;20239;-78
2021/12/26 00:27:09;;;;;;;22.83;20.47;;;7.70;99.90;;;;;;10504928;28;20248;-78
2021/12/26 00:32:11;;;;;;;21.20;19.10;;;7.70;99.90;;;;;;10506142;28;20700;-77
2021/12/26 00:37:14;;;;;;;21.83;19.53;;;7.70;99.90;;;;;;10506860;28;20193;-78
2021/12/26 00:42:16;;;;;;;23.23;20.83;;;7.70;99.90;;;;;;10506141;28;20216;-78
2021/12/26 00:47:18;;;;;;;20.40;18.43;;;7.70;99.90;;;;;;10485528;28;20566;-78
2021/12/26 00:52:22;;;;;;;20.80;18.60;;;7.70;99.90;;;;;;10504972;28;20561;-79
2021/12/26 00:57:24;;;;;;;20.83;18.83;;;7.80;99.90;;;;;;10503644;28;20195;-78
2021/12/26 01:02:26;;;;;;;17.70;15.97;;;7.70;99.90;;;;;;10489171;28;20221;-80
2021/12/26 01:07:40;;;;;;;18.93;16.93;;;7.70;99.90;;;;;;10504588;28;20197;-78
2021/12/26 01:12:42;;;;;;;17.70;15.80;;;7.70;99.90;;;;;;10502553;28;20209;-78
2021/12/26 01:17:45;;;;;;;17.40;15.60;;;7.70;99.90;;;;;;10488043;28;20235;-79
2021/12/26 01:22:52;;;;;;;16.30;14.60;;;7.70;99.90;;;;;;10485584;28;20307;-78
2021/12/26 01:27:54;;;;;;;17.37;15.67;;;7.60;99.90;;;;;;10502059;28;20220;-77
2021/12/26 01:32:57;;;;;;;16.50;14.87;;;7.60;99.90;;;;;;10503625;28;20231;-79
2021/12/26 01:38:14;;;;;;;16.10;14.17;;;7.50;99.90;;;;;;10502832;28;20192;-79
2021/12/26 01:43:22;;;;;;;16.03;14.33;;;7.50;99.90;;;;;;10505542;28;20217;-78
2021/12/26 01:48:37;;;;;;;16.27;14.60;;;7.50;99.90;;;;;;10501813;28;20173;-78
2021/12/26 01:53:41;;;;;;;16.10;14.60;;;7.50;99.90;;;;;;10484534;28;20209;-78
2021/12/26 01:58:43;;;;;;;15.20;13.80;;;7.50;99.90;;;;;;10498423;28;20201;-77
2021/12/26 02:04:06;;;;;;;15.40;13.97;;;7.50;99.90;;;;;;10498470;28;20768;-79
2021/12/26 02:09:12;;;;;;;15.50;13.90;;;7.50;99.90;;;;;;10484384;28;20199;-77
2021/12/26 02:14:15;;;;;;;13.63;12.37;;;7.50;99.90;;;;;;10501320;28;20187;-78
2021/12/26 02:19:43;;;;;;;13.60;12.27;;;7.50;99.90;;;;;;10501077;28;20632;-78
2021/12/26 02:25:12;;;;;;;14.97;13.57;;;7.50;99.90;;;;;;10500934;28;20212;-77
2021/12/26 02:30:16;;;;;;;15.97;14.37;;;7.50;99.90;;;;;;10484224;28;20224;-78
2021/12/26 02:35:23;;;;;;;14.30;12.90;;;7.50;99.90;;;;;;10502242;28;20636;-78
2021/12/26 02:40:27;;;;;;;15.03;13.63;;;7.50;99.90;;;;;;10484511;28;20629;-78
2021/12/26 02:45:31;;;;;;;17.10;15.40;;;7.40;99.90;;;;;;10499794;28;20850;-79
2021/12/26 02:50:35;;;;;;;16.80;15.20;;;7.40;99.90;;;;;;10484023;28;20226;-79
2021/12/26 02:55:37;;;;;;;16.87;15.17;;;7.40;99.90;;;;;;10483041;28;20188;-77
2021/12/26 03:00:43;;;;;;;17.30;15.57;;;7.40;99.90;;;;;;10482073;28;20220;-78
2021/12/26 03:05:54;;;;;;;16.50;14.90;;;7.40;99.90;;;;;;10502620;28;20736;-78
2021/12/26 03:10:57;;;;;;;16.30;14.70;;;7.40;99.90;;;;;;10503278;28;20265;-79
2021/12/26 03:15:59;;;;;;;16.37;14.87;;;7.40;99.90;;;;;;10501718;28;20197;-79
2021/12/26 03:21:06;;;;;;;17.40;15.70;;;7.40;99.90;;;;;;10484608;28;20247;-79
2021/12/26 03:26:08;;;;;;;18.33;16.60;;;7.40;99.90;;;;;;10498921;28;20212;-79
2021/12/26 03:31:12;;;;;;;18.03;16.23;;;7.40;99.90;;;;;;10482201;28;20216;-79
2021/12/26 03:36:16;;;;;;;18.07;16.23;;;7.40;99.90;;;;;;10481145;28;20271;-79
2021/12/26 03:41:20;;;;;;;17.37;15.63;;;7.40;99.90;;;;;;10499071;28;20213;-78
2021/12/26 03:46:28;;;;;;;19.30;17.30;;;7.50;99.90;;;;;;10498967;28;20299;-78
2021/12/26 03:51:33;;;;;;;19.20;17.10;;;7.50;99.90;;;;;;10482485;28;20703;-79
2021/12/26 03:56:36;;;;;;;20.80;18.60;;;7.50;99.90;;;;;;10482229;28;20283;-77
2021/12/26 04:01:47;;;;;;;19.50;17.40;;;7.50;99.90;;;;;;10498821;28;20212;-79
2021/12/26 04:06:51;;;;;;;19.60;17.63;;;7.50;99.90;;;;;;10498380;28;20295;-80
2021/12/26 04:11:53;;;;;;;18.70;16.80;;;7.50;99.90;;;;;;10506801;28;20205;-78
2021/12/26 04:16:56;;;;;;;19.23;17.20;;;7.50;99.90;;;;;;10505351;28;20267;-77
2021/12/26 04:22:00;;;;;;;19.07;17.13;;;7.50;99.90;;;;;;10505440;28;20695;-78
2021/12/26 04:27:02;;;;;;;21.83;18.60;;;7.50;99.90;;;;;;10504585;28;20205;-80
2021/12/26 04:32:06;;;;;;;21.57;19.27;;;7.50;99.90;;;;;;10488691;28;20219;-79
2021/12/26 04:37:10;;;;;;;20.27;18.07;;;7.40;99.90;;;;;;10504960;28;20238;-79
2021/12/26 04:42:12;;;;;;;21.40;18.37;;;7.50;99.90;;;;;;10506328;28;20220;-78
2021/12/26 04:47:49;;;;;;;20.67;18.53;;;7.50;99.90;;;;;;10489370;28;20197;-78
2021/12/26 04:52:53;;;;;;;19.40;17.40;;;7.40;99.90;;;;;;10505539;28;20588;-78
2021/12/26 04:57:57;;;;;;;21.60;19.30;;;7.50;99.90;;;;;;10488165;28;20238;-77
2021/12/26 05:03:02;;;;;;;21.77;19.50;;;7.50;99.90;;;;;;10487503;28;20323;-79
2021/12/26 05:08:07;;;;;;;20.03;17.10;;;7.50;99.90;;;;;;10504502;28;20214;-78
2021/12/26 05:13:09;;;;;;;18.93;17.03;;;7.50;99.90;;;;;;10506533;28;20625;-79
2021/12/26 05:18:11;;;;;;;18.13;16.23;;;7.50;99.90;;;;;;10503538;28;20644;-77
2021/12/26 05:23:15;;;;;;;19.30;17.20;;;7.50;99.90;;;;;;10485258;28;20232;-79
2021/12/26 05:28:18;;;;;;;23.53;21.03;;;7.40;99.90;;;;;;10503302;28;20189;-78
2021/12/26 05:33:22;;;;;;;20.33;18.13;;;7.40;99.90;;;;;;10486284;28;20254;-79
2021/12/26 05:38:28;;;;;;;23.33;19.93;;;7.40;99.90;;;;;;10504533;28;20189;-78
2021/12/26 05:43:31;;;;;;;21.90;19.70;;;7.40;99.90;;;;;;10504183;28;20222;-79
2021/12/26 05:48:33;;;;;;;23.20;20.67;;;7.40;99.90;;;;;;10480604;28;20198;-79
2021/12/26 05:53:38;;;;;;;23.83;20.37;;;7.40;99.90;;;;;;10438048;28;20214;-79
2021/12/26 05:58:41;;;;;;;23.80;21.17;;;7.50;99.90;;;;;;10457983;28;20284;-78
2021/12/26 06:03:44;;;;;;;24.53;21.70;;;7.50;99.90;;;;;;10485332;22;20233;-82
2021/12/26 06:08:48;;;;;;;23.30;20.10;;;7.60;99.90;;;;;;10465166;28;20196;-83
2021/12/26 06:13:50;;;;;;;23.87;20.70;;;7.60;99.90;;;;;;10448128;28;20341;-82
2021/12/26 06:18:53;;;;;;;22.57;19.80;;;7.60;99.90;;;;;;10412733;28;20240;-83
2021/12/26 06:24:22;;;;;;;23.57;19.53;;;7.60;99.90;;;;;;10407997;28;20218;-82
2021/12/26 06:29:47;;;;;;;19.53;17.47;;;7.60;99.90;;;;;;10411286;28;20236;-82
2021/12/26 06:35:15;;;;;;;21.17;18.87;;;7.60;99.90;;;;;;10406129;28;20190;-82
2021/12/26 06:40:48;;;;;;;19.60;17.53;;;7.70;99.90;;;;;;10371343;28;20226;-82
2021/12/26 06:46:09;;;;;;;19.77;17.67;;;7.60;99.90;;;;;;10382786;28;20300;-83
2021/12/26 06:51:29;;;;;;;17.20;15.33;;;7.70;99.90;;;;;;10413079;28;20728;-82
2021/12/26 06:56:34;;;;;;;17.17;15.30;;;7.70;99.90;;;;;;10394779;28;20275;-82
2021/12/26 07:01:38;;;;;;;17.77;15.90;;;7.70;99.90;;;;;;10412298;28;20225;-81
2021/12/26 07:06:42;;;;;;;16.40;14.27;;;7.70;99.90;;;;;;10412691;28;20228;-81
2021/12/26 07:11:55;;;;;;;20.20;17.27;;;7.70;99.90;;;;;;10396106;28;20241;-80
2021/12/26 07:17:14;;;;;;;21.37;17.83;;;7.70;99.90;;;;;;10395541;28;20198;-81
2021/12/26 07:22:20;;;;;;;24.17;21.67;;;7.70;99.90;;;;;;10413292;28;20210;-80
2021/12/26 07:27:24;;;;;;;28.23;24.80;;;7.70;99.90;;;;;;10396994;28;20218;-81
2021/12/26 07:32:47;;;;;;;26.37;23.57;;;7.60;99.90;;;;;;10410782;28;20213;-81
2021/12/26 07:37:51;;;;;;;22.53;20.17;;;7.60;99.90;;;;;;10380201;28;20206;-79
2021/12/26 07:42:55;;;;;;;23.13;20.57;;;7.60;99.90;;;;;;10372514;28;20726;-80
2021/12/26 07:48:16;;;;;;;25.30;22.00;;;7.60;99.90;;;;;;10385468;28;20206;-79
2021/12/26 07:53:18;;;;;;;26.47;22.10;;;7.60;99.90;;;;;;10384720;28;20206;-80
2021/12/26 07:58:53;;;;;;;22.67;20.00;;;7.70;99.90;;;;;;10378958;28;20194;-79
2021/12/26 08:04:14;;;;;;;25.57;22.67;;;7.70;99.90;;;;;;10377569;28;20218;-79
2021/12/26 08:09:35;;;;;;;24.40;21.60;;;7.80;99.90;;;;;;10379818;28;20167;-80
2021/12/26 08:14:40;;;;;;;25.20;22.03;;;7.90;99.90;;;;;;10377111;28;20198;-80
2021/12/26 08:19:42;;;;;;;24.00;20.90;;;8.00;99.90;;;;;;10379379;28;20643;-80
2021/12/26 08:24:45;;;;;;;26.13;21.67;;;8.00;99.90;;;;;;10377617;28;20211;-80
2021/12/26 08:29:48;;;;;;;25.80;21.83;;;8.10;99.90;;;;;;10407555;28;20694;-80
2021/12/26 08:34:51;;;;;;;26.93;23.00;;;8.10;99.90;;;;;;10384214;28;20194;-81
2021/12/26 08:39:53;;;;;;;26.23;23.10;;;8.20;99.90;;;;;;10389171;28;20242;-80
2021/12/26 08:44:59;;;;;;;27.00;22.30;;;8.30;99.90;;;;;;10411803;28;21660;-79
2021/12/26 08:50:02;;;;;;;26.37;22.83;;;8.30;99.90;;;;;;10370929;28;20798;-84
2021/12/26 08:55:05;;;;;;;26.50;23.60;;;8.40;99.90;;;;;;10406816;28;20212;-83
2021/12/26 09:00:12;;;;;;;27.57;24.63;;;8.40;99.90;;;;;;10404002;28;20234;-85
2021/12/26 09:05:14;;;;;;;29.90;24.60;;;8.50;99.90;;;;;;10411025;28;20218;-85
2021/12/26 09:10:16;;;;;;;25.30;22.17;;;8.50;99.90;;;;;;10387550;28;20259;-85
2021/12/26 09:15:22;;;;;;;26.07;22.77;;;8.60;99.90;;;;;;10371313;28;20684;-85
2021/12/26 09:20:25;;;;;;;28.77;24.97;;;8.60;99.90;;;;;;10394608;28;20301;-86
2021/12/26 09:25:27;;;;;;;29.83;25.47;;;8.70;99.90;;;;;;10389993;28;20226;-85
2021/12/26 09:30:31;;;;;;;26.13;23.00;;;8.70;99.90;;;;;;10385585;28;20226;-86
2021/12/26 09:35:33;;;;;;;27.73;24.23;;;8.60;99.90;;;;;;10400787;28;20194;-86
2021/12/26 09:40:35;;;;;;;27.40;23.53;;;8.70;99.90;;;;;;10383382;28;20221;-85
2021/12/26 09:45:39;;;;;;;29.77;24.67;;;8.70;99.90;;;;;;10393837;28;20210;-85
2021/12/26 09:50:42;;;;;;;28.30;24.10;;;8.70;99.90;;;;;;10365972;28;20301;-85
2021/12/26 09:55:44;;;;;;;28.37;23.70;;;8.80;99.90;;;;;;10415235;28;20212;-84
2021/12/26 10:00:48;;;;;;;29.07;25.33;;;8.90;99.90;;;;;;10381609;28;20226;-83
2021/12/26 10:05:59;;;;;;;31.80;25.60;;;8.90;99.90;;;;;;10426604;28;20309;-82
2021/12/26 10:11:08;;;;;;;28.10;23.77;;;9.00;99.90;;;;;;10400429;28;20218;-83
2021/12/26 10:16:14;;;;;;;28.90;23.77;;;9.10;99.90;;;;;;10383458;28;20281;-83
2021/12/26 10:21:31;;;;;;;31.10;24.77;;;9.10;99.90;;;;;;10396028;28;20237;-83
2021/12/26 10:26:35;;;;;;;26.53;23.70;;;9.20;99.90;;;;;;10377047;28;20387;-83
2021/12/26 10:31:44;;;;;;;25.50;22.70;;;9.20;99.90;;;;;;10394591;28;20214;-83
2021/12/26 10:36:47;;;;;;;25.20;21.20;;;9.30;99.90;;;;;;10410768;28;20631;-84
2021/12/26 10:41:51;;;;;;;24.33;21.57;;;9.30;99.90;;;;;;10394768;28;20580;-82
2021/12/26 10:46:59;;;;;;;25.07;22.40;;;9.40;99.90;;;;;;10398704;28;20210;-82
2021/12/26 10:52:02;;;;;;;26.17;22.70;;;9.40;99.90;;;;;;10384252;28;20313;-83
2021/12/26 10:57:10;;;;;;;24.33;21.77;;;9.40;99.90;;;;;;10385982;28;20284;-82
2021/12/26 11:02:24;;;;;;;25.53;22.73;;;9.40;99.90;;;;;;10398208;28;20276;-83
2021/12/26 11:07:27;;;;;;;24.30;21.70;;;9.40;99.90;;;;;;10385254;28;20246;-82
2021/12/26 11:12:43;;;;;;;24.77;21.37;;;9.50;99.90;;;;;;10352258;28;20223;-82
2021/12/26 11:17:50;;;;;;;24.93;22.23;;;9.50;99.90;;;;;;10372048;28;20187;-82
2021/12/26 11:22:52;;;;;;;25.77;21.40;;;9.60;99.90;;;;;;10415159;28;20624;-83
2021/12/26 11:27:55;;;;;;;25.07;21.50;;;9.70;99.90;;;;;;10423423;28;20225;-82
2021/12/26 11:33:00;;;;;;;20.03;18.03;;;9.80;99.90;;;;;;10420837;28;20218;-82
2021/12/26 11:38:03;;;;;;;20.13;18.03;;;9.80;99.90;;;;;;10422367;28;20560;-82
2021/12/26 11:43:53;;;;;;;20.07;18.07;;;9.80;99.90;;;;;;10424351;28;20326;-83
2021/12/26 11:50:01;;;;;;;21.17;19.07;;;9.80;99.90;;;;;;10422000;28;20198;-83
2021/12/26 11:55:33;;;;;;;18.53;16.83;;;9.80;99.90;;;;;;10409838;28;20198;-83
2021/12/26 12:00:38;;;;;;;17.70;15.93;;;9.80;99.90;;;;;;10466514;22;20227;-81
2021/12/26 12:05:43;;;;;;;18.20;15.83;;;9.90;99.90;;;;;;10533433;28;20258;-81
2021/12/26 12:10:48;;;;;;;15.67;14.20;;;9.90;99.90;;;;;;10553833;28;20215;-82
2021/12/26 12:15:53;;;;;;;15.73;14.17;;;9.90;99.90;;;;;;10520787;28;20196;-81
2021/12/26 12:21:12;;;;;;;16.27;14.57;;;10.00;99.90;;;;;;10501107;28;20220;-82
2021/12/26 12:26:38;;;;;;;15.43;14.03;;;10.10;99.90;;;;;;10501123;28;20220;-80
2021/12/26 12:31:41;;;;;;;15.50;14.10;;;10.20;99.90;;;;;;10484910;28;20223;-81
2021/12/26 12:36:46;;;;;;;16.50;15.00;;;10.20;99.90;;;;;;10471864;28;20630;-78
2021/12/26 12:41:49;;;;;;;14.93;13.53;;;10.30;99.90;;;;;;10484507;28;20211;-79
2021/12/26 12:47:01;;;;;;;13.50;12.20;;;10.30;99.90;;;;;;10483862;28;20216;-78
2021/12/26 12:52:06;;;;;;;14.33;12.80;;;10.30;99.90;;;;;;10483673;28;20220;-81
2021/12/26 12:57:08;;;;;;;13.67;12.47;;;10.40;99.90;;;;;;10502890;28;20220;-82
2021/12/26 13:02:26;;;;;;;13.30;12.10;;;10.50;99.90;;;;;;10484797;28;20231;-79
2021/12/26 13:07:31;;;;;;;16.53;15.00;;;10.50;99.90;;;;;;10499266;28;20247;-80
2021/12/26 13:12:33;;;;;;;15.13;13.63;;;10.50;99.90;;;;;;10503303;28;20255;-80
2021/12/26 13:17:37;;;;;;;14.63;13.20;;;10.50;99.90;;;;;;10504202;28;20180;-79
2021/12/26 13:22:46;;;;;;;13.70;12.40;;;10.40;99.90;;;;;;10504424;28;20213;-80
2021/12/26 13:27:49;;;;;;;11.30;10.40;;;10.40;99.90;;;;;;10485971;28;20660;-79
2021/12/26 13:32:51;;;;;;;13.07;11.93;;;10.40;99.90;;;;;;10486090;28;20229;-80
2021/12/26 13:37:56;;;;;;;14.07;12.77;;;10.30;99.90;;;;;;10486234;28;20311;-79
2021/12/26 13:42:58;;;;;;;13.50;12.20;;;10.30;99.90;;;;;;10470652;28;20224;-83
2021/12/26 13:48:01;;;;;;;16.20;14.77;;;10.30;99.90;;;;;;10486779;28;20255;-80
2021/12/26 13:53:07;;;;;;;11.90;10.90;;;10.30;99.90;;;;;;10483849;28;20209;-79
2021/12/26 13:58:11;;;;;;;11.63;10.57;;;10.40;99.90;;;;;;10484037;28;20311;-80
2021/12/26 14:03:13;;;;;;;12.90;11.80;;;10.40;99.90;;;;;;10480490;28;20224;-79
2021/12/26 14:08:19;;;;;;;12.53;11.43;;;10.40;99.90;;;;;;10504774;28;20212;-81
2021/12/26 14:13:21;;;;;;;11.70;10.70;;;10.40;99.90;;;;;;10522698;28;20222;-79
2021/12/26 14:18:29;;;;;;;12.20;11.10;;;10.40;99.90;;;;;;10525842;28;20604;-80
2021/12/26 14:23:40;;;;;;;12.00;10.90;;;10.30;99.90;;;;;;10526899;28;20211;-79
2021/12/26 14:28:44;;;;;;;11.70;10.60;;;10.30;99.90;;;;;;10526513;28;20219;-79
2021/12/26 14:33:49;;;;;;;12.40;11.30;;;10.30;99.90;;;;;;10499955;28;20211;-80
2021/12/26 14:38:56;;;;;;;12.70;11.60;;;10.20;99.90;;;;;;10473664;28;20189;-82
2021/12/26 14:43:58;;;;;;;12.27;11.17;;;10.20;99.90;;;;;;10483314;28;20328;-81
2021/12/26 14:49:09;;;;;;;12.67;11.47;;;10.10;99.90;;;;;;10457567;28;20216;-81
2021/12/26 14:54:13;;;;;;;15.23;13.80;;;10.00;99.90;;;;;;10501668;28;20282;-82
2021/12/26 14:59:34;;;;;;;13.43;12.23;;;10.00;99.90;;;;;;10495930;28;20613;-80
2021/12/26 15:04:37;;;;;;;15.00;13.70;;;9.90;99.90;;;;;;10496472;28;20701;-79
2021/12/26 15:09:45;;;;;;;13.73;12.33;;;9.90;99.90;;;;;;10467604;28;20211;-79
2021/12/26 15:14:47;;;;;;;13.90;12.70;;;9.90;99.90;;;;;;10476064;28;20200;-80
2021/12/26 15:19:49;;;;;;;13.40;12.10;;;9.80;99.90;;;;;;10473371;28;20203;-79
2021/12/26 15:24:54;;;;;;;13.60;12.40;;;9.80;99.90;;;;;;10456713;28;20216;-80
2021/12/26 15:29:57;;;;;;;14.17;12.87;;;9.80;99.90;;;;;;10471836;28;20199;-79
2021/12/26 15:34:59;;;;;;;15.30;13.77;;;9.90;99.90;;;;;;10471800;28;20220;-79
2021/12/26 15:40:11;;;;;;;14.30;12.90;;;9.90;99.90;;;;;;10492546;28;20266;-79
2021/12/26 15:45:13;;;;;;;12.87;11.77;;;9.80;99.90;;;;;;10497310;28;20235;-80
2021/12/26 15:50:16;;;;;;;13.07;11.93;;;9.80;99.90;;;;;;10479489;28;20224;-79
2021/12/26 15:55:19;;;;;;;12.83;11.70;;;9.80;99.90;;;;;;10463146;28;20211;-80
2021/12/26 16:00:21;;;;;;;14.43;13.13;;;9.80;99.90;;;;;;10495770;28;20618;-79
2021/12/26 16:05:24;;;;;;;14.63;13.27;;;9.80;99.90;;;;;;10446752;28;20273;-79
2021/12/26 16:10:27;;;;;;;14.20;12.90;;;9.80;99.90;;;;;;10445361;28;20225;-79
2021/12/26 16:15:29;;;;;;;12.83;11.70;;;9.80;99.90;;;;;;10463101;28;20192;-79
2021/12/26 16:20:32;;;;;;;14.93;12.37;;;9.80;99.90;;;;;;10463083;28;20213;-80
2021/12/26 16:25:35;;;;;;;13.47;12.10;;;9.80;99.90;;;;;;10463006;28;20648;-79
2021/12/26 16:30:39;;;;;;;12.57;11.57;;;9.80;99.90;;;;;;10463291;28;20233;-78
2021/12/26 16:35:43;;;;;;;10.77;9.87;;;9.80;99.90;;;;;;10461558;28;20238;-77
2021/12/26 16:40:48;;;;;;;10.80;9.90;;;9.70;99.90;;;;;;10446477;28;20283;-81
2021/12/26 16:45:53;;;;;;;10.87;9.97;;;9.70;99.90;;;;;;10430653;28;20580;-77
2021/12/26 16:50:55;;;;;;;12.47;11.37;;;9.60;99.90;;;;;;10458021;28;20689;-76
2021/12/26 16:55:59;;;;;;;12.00;10.90;;;9.60;99.90;;;;;;10481701;28;20199;-76
2021/12/26 17:01:01;;;;;;;11.47;10.37;;;9.50;99.90;;;;;;10496453;28;20212;-78
2021/12/26 17:06:03;;;;;;;12.10;11.00;;;9.40;99.90;;;;;;10497158;28;20219;-79
2021/12/26 17:11:07;;;;;;;12.70;11.50;;;9.40;99.90;;;;;;10498480;28;20223;-77
2021/12/26 17:16:09;;;;;;;11.90;10.83;;;9.30;99.90;;;;;;10497713;28;20181;-76
2021/12/26 17:21:12;;;;;;;13.43;12.23;;;9.30;99.90;;;;;;10497400;28;20220;-77
2021/12/26 17:26:15;;;;;;;14.47;13.27;;;9.30;99.90;;;;;;10497322;28;20684;-77
2021/12/26 17:31:18;;;;;;;18.00;16.20;;;9.20;99.90;;;;;;10479585;28;20212;-76
2021/12/26 17:36:20;;;;;;;17.97;16.10;;;9.20;99.90;;;;;;10497470;28;20272;-77
2021/12/26 17:41:24;;;;;;;20.90;18.60;;;9.20;99.90;;;;;;10479215;28;20303;-76
2021/12/26 17:46:26;;;;;;;16.03;14.57;;;9.20;99.90;;;;;;10478559;28;20557;-77
2021/12/26 17:51:36;;;;;;;13.30;12.20;;;9.20;99.90;;;;;;10496603;28;20220;-76
2021/12/26 17:56:44;;;;;;;14.40;13.10;;;9.20;99.90;;;;;;10477971;28;20644;-76
2021/12/26 18:01:49;;;;;;;15.63;14.33;;;9.10;99.90;;;;;;10479684;28;20591;-77
2021/12/26 18:06:51;;;;;;;12.77;11.67;;;9.20;99.90;;;;;;10483947;28;20214;-79
2021/12/26 18:11:55;;;;;;;15.67;14.27;;;9.20;99.90;;;;;;10484446;28;20749;-78
2021/12/26 18:16:57;;;;;;;18.90;17.20;;;9.20;99.90;;;;;;10465138;28;20207;-78
2021/12/26 18:21:59;;;;;;;14.73;13.43;;;9.20;99.90;;;;;;10481671;28;20217;-78
2021/12/26 18:27:03;;;;;;;13.23;12.13;;;9.20;99.90;;;;;;10500503;28;20304;-79
2021/12/26 18:32:06;;;;;;;13.30;12.23;;;9.20;99.90;;;;;;10482457;28;20212;-79
2021/12/26 18:37:08;;;;;;;14.63;13.43;;;9.20;99.90;;;;;;10503386;28;20196;-77
2021/12/26 18:42:12;;;;;;;14.77;13.47;;;9.20;99.90;;;;;;10464039;28;20220;-77
2021/12/26 18:47:15;;;;;;;13.67;12.47;;;9.20;99.90;;;;;;10481722;28;20216;-79
2021/12/26 18:52:17;;;;;;;13.87;12.67;;;9.20;99.90;;;;;;10501000;28;20220;-77
2021/12/26 18:57:20;;;;;;;15.00;13.70;;;9.20;99.90;;;;;;10480106;28;20204;-77
2021/12/26 19:02:23;;;;;;;12.70;11.70;;;9.10;99.90;;;;;;10482255;28;20224;-79
2021/12/26 19:07:25;;;;;;;14.10;12.83;;;9.10;99.90;;;;;;10483471;28;20223;-78
2021/12/26 19:12:28;;;;;;;15.77;14.37;;;9.10;99.90;;;;;;10484968;28;20220;-77
2021/12/26 19:17:30;;;;;;;17.50;16.00;;;9.10;99.90;;;;;;10501896;28;20205;-79
2021/12/26 19:22:33;;;;;;;16.00;14.60;;;9.20;99.90;;;;;;10481326;28;20263;-78
2021/12/26 19:27:36;;;;;;;15.77;14.47;;;9.20;99.90;;;;;;10480829;28;20226;-79
2021/12/26 19:32:41;;;;;;;14.43;13.23;;;9.10;99.90;;;;;;10498854;28;20212;-80
2021/12/26 19:37:45;;;;;;;14.90;13.60;;;9.10;99.90;;;;;;10499737;28;20212;-79
2021/12/26 19:42:49;;;;;;;14.00;12.90;;;9.10;99.90;;;;;;10490760;28;20212;-79
2021/12/26 19:47:51;;;;;;;14.50;13.20;;;9.10;99.90;;;;;;10479268;28;20757;-79
2021/12/26 19:52:53;;;;;;;13.73;12.50;;;9.10;99.90;;;;;;10494695;28;20727;-79
2021/12/26 19:57:57;;;;;;;16.47;15.00;;;9.20;99.90;;;;;;10472685;28;20192;-79
2021/12/26 20:03:00;;;;;;;14.70;13.40;;;9.20;99.90;;;;;;10510345;28;20712;-79
2021/12/26 20:08:03;;;;;;;16.07;14.57;;;9.20;99.90;;;;;;10508567;28;20220;-79
2021/12/26 20:13:07;;;;;;;15.27;13.87;;;9.20;99.90;;;;;;10510055;28;20307;-79
2021/12/26 20:18:09;;;;;;;15.53;14.23;;;9.20;99.90;;;;;;10492705;28;20652;-79
2021/12/26 20:23:11;;;;;;;14.53;13.30;;;9.20;99.90;;;;;;10508968;28;20299;-79
2021/12/26 20:28:30;;;;;;;14.70;13.40;;;9.20;99.90;;;;;;10480293;28;20308;-79
2021/12/26 20:33:32;;;;;;;16.27;14.97;;;9.20;99.90;;;;;;10472173;28;20279;-76
2021/12/26 20:38:37;;;;;;;16.40;14.90;;;9.10;99.90;;;;;;10470586;28;20189;-77
2021/12/26 20:43:43;;;;;;;15.13;13.83;;;9.10;99.90;;;;;;10435613;28;20229;-77
2021/12/26 20:48:48;;;;;;;17.23;15.70;;;9.10;99.90;;;;;;10494097;28;20218;-79
2021/12/26 20:53:50;;;;;;;15.43;13.90;;;9.20;99.90;;;;;;10480536;28;20708;-78
2021/12/26 20:58:54;;;;;;;22.10;20.00;;;9.30;99.90;;;;;;10468342;28;20544;-79
2021/12/26 21:03:56;;;;;;;16.87;15.33;;;9.30;99.90;;;;;;10478686;28;20216;-78
2021/12/26 21:08:58;;;;;;;17.37;15.87;;;9.30;99.90;;;;;;10494806;28;20220;-79
2021/12/26 21:14:02;;;;;;;23.00;20.20;;;9.30;99.90;;;;;;10477909;28;20232;-76
2021/12/26 21:19:04;;;;;;;22.07;19.93;;;9.30;99.90;;;;;;10478641;28;20287;-78
2021/12/26 21:24:07;;;;;;;19.53;17.83;;;9.20;99.90;;;;;;10505806;28;20303;-78
2021/12/26 21:29:12;;;;;;;14.30;13.10;;;9.20;99.90;;;;;;10486782;28;20579;-77
2021/12/26 21:34:14;;;;;;;15.57;14.20;;;9.20;99.90;;;;;;10454440;28;20229;-76
2021/12/26 21:39:17;;;;;;;15.00;13.57;;;9.20;99.90;;;;;;10496004;28;20283;-77
2021/12/26 21:44:20;;;;;;;14.13;12.93;;;9.20;99.90;;;;;;10470260;28;20220;-76
2021/12/26 21:49:22;;;;;;;23.83;21.53;;;9.20;99.90;;;;;;10495802;28;20215;-76
2021/12/26 21:54:24;;;;;;;19.43;17.73;;;9.20;99.90;;;;;;10479171;28;20315;-78
2021/12/26 21:59:28;;;;;;;21.47;19.50;;;9.20;99.90;;;;;;10478191;28;20280;-78
2021/12/26 22:04:31;;;;;;;13.33;12.13;;;9.20;99.90;;;;;;10490268;28;20601;-77
2021/12/26 22:09:33;;;;;;;10.93;10.03;;;9.10;99.90;;;;;;10495455;28;20217;-77
2021/12/26 22:14:36;;;;;;;10.33;9.43;;;9.10;99.90;;;;;;10495908;28;20217;-77
2021/12/26 22:19:40;;;;;;;8.97;8.17;;;9.10;99.90;;;;;;10495354;28;20192;-78
2021/12/26 22:24:42;;;;;;;8.50;7.70;;;9.10;99.90;;;;;;10495676;28;20227;-79
2021/12/26 22:29:47;;;;;;;8.30;7.60;;;9.20;99.90;;;;;;10492427;28;20228;-79
2021/12/26 22:34:49;;;;;;;8.47;7.70;;;9.20;99.90;;;;;;10497151;28;20193;-77
2021/12/26 22:39:51;;;;;;;8.90;8.30;;;9.30;99.90;;;;;;10490703;28;20195;-80
2021/12/26 22:44:54;;;;;;;9.20;8.50;;;9.30;99.90;;;;;;10486316;28;20267;-79
2021/12/26 22:49:57;;;;;;;7.50;7.00;;;9.40;99.90;;;;;;10495035;28;20224;-79
2021/12/26 22:54:59;;;;;;;8.20;7.60;;;9.40;99.90;;;;;;10466977;28;20283;-79
2021/12/26 23:00:04;;;;;;;7.20;6.70;;;9.50;99.90;;;;;;10460652;28;20291;-80
2021/12/26 23:05:08;;;;;;;8.13;7.43;;;9.50;99.90;;;;;;10471114;28;20205;-78
2021/12/26 23:10:10;;;;;;;8.13;7.53;;;9.50;99.90;;;;;;10437410;28;20327;-77
2021/12/26 23:15:13;;;;;;;9.30;8.40;;;9.60;99.90;;;;;;10460222;28;20299;-77
2021/12/26 23:20:15;;;;;;;7.70;7.10;;;9.60;99.90;;;;;;10482662;28;20584;-81
2021/12/26 23:25:18;;;;;;;8.80;8.10;;;9.60;99.90;;;;;;10488034;28;20200;-79
2021/12/26 23:30:22;;;;;;;9.60;8.87;;;9.60;99.90;;;;;;10507287;28;20850;-81
2021/12/26 23:35:24;;;;;;;8.20;7.57;;;9.60;99.90;;;;;;10487617;28;20211;-80
2021/12/26 23:40:30;;;;;;;10.47;8.43;;;9.50;99.90;;;;;;10473822;28;20252;-80
2021/12/26 23:45:34;;;;;;;10.10;9.20;;;9.50;99.90;;;;;;10498318;28;20228;-80
2021/12/26 23:50:36;;;;;;;10.13;9.23;;;9.50;99.90;;;;;;10492477;28;20220;-79
2021/12/26 23:55:38;;;;;;;10.50;9.60;;;9.50;99.90;;;;;;10501261;28;20250;-80
